createdAt,value
2017-11-09T00:00:33.275Z,11.20
2017-11-09T00:03:01.533Z,11.20
2017-11-09T00:05:34.610Z,11.10
2017-11-09T00:08:02.087Z,11.20
2017-11-09T00:10:29.562Z,11.00
2017-11-09T00:12:57.876Z,10.90
2017-11-09T00:15:25.354Z,10.80
2017-11-09T00:17:52.838Z,10.70
2017-11-09T00:20:20.319Z,10.80
2017-11-09T00:22:48.563Z,11.10
2017-11-09T00:25:16.071Z,11.00
2017-11-09T00:27:44.322Z,11.00
2017-11-09T00:30:12.574Z,11.10
2017-11-09T00:32:40.057Z,11.00
2017-11-09T00:35:07.540Z,11.20
2017-11-09T00:37:35.026Z,11.20
2017-11-09T00:40:02.513Z,11.20
2017-11-09T00:42:29.993Z,11.20
2017-11-09T00:44:57.480Z,11.40
2017-11-09T00:47:24.966Z,11.20
2017-11-09T00:49:52.442Z,11.20
2017-11-09T00:52:19.927Z,11.20
2017-11-09T00:54:48.914Z,11.10
2017-11-09T00:57:16.386Z,11.10
2017-11-09T00:59:44.632Z,11.20
2017-11-09T01:02:12.115Z,11.20
2017-11-09T01:04:39.597Z,11.10
2017-11-09T01:07:07.082Z,11.10
2017-11-09T01:09:34.565Z,11.10
2017-11-09T01:12:02.046Z,11.10
2017-11-09T01:14:29.541Z,11.20
2017-11-09T01:16:57.024Z,11.20
2017-11-09T01:19:24.506Z,11.20
2017-11-09T01:21:51.987Z,11.20
2017-11-09T01:24:20.247Z,11.00
2017-11-09T01:26:47.731Z,11.00
2017-11-09T01:29:15.984Z,11.20
2017-11-09T01:31:44.990Z,11.00
2017-11-09T01:34:12.465Z,11.00
2017-11-09T01:36:40.719Z,11.00
2017-11-09T01:39:08.197Z,10.90
2017-11-09T01:41:36.450Z,10.90
2017-11-09T01:44:03.941Z,10.90
2017-11-09T01:46:32.195Z,11.10
2017-11-09T01:49:00.444Z,11.30
2017-11-09T01:51:27.926Z,11.30
2017-11-09T01:53:55.402Z,11.40
2017-11-09T01:56:23.653Z,11.40
2017-11-09T01:58:51.130Z,11.30
2017-11-09T02:01:18.610Z,11.30
2017-11-09T02:03:46.855Z,11.30
2017-11-09T02:06:14.331Z,11.30
2017-11-09T02:08:42.570Z,11.30
2017-11-09T02:11:10.045Z,11.30
2017-11-09T02:13:37.523Z,11.40
2017-11-09T02:16:05.771Z,11.30
2017-11-09T02:18:33.258Z,11.20
2017-11-09T02:21:01.518Z,11.20
2017-11-09T02:23:29.003Z,11.20
2017-11-09T02:25:56.492Z,11.20
2017-11-09T02:28:23.974Z,11.20
2017-11-09T02:30:51.450Z,11.20
2017-11-09T02:33:18.930Z,11.20
2017-11-09T02:35:47.191Z,11.20
2017-11-09T02:38:14.688Z,11.10
2017-11-09T02:40:42.191Z,11.20
2017-11-09T02:43:09.685Z,11.20
2017-11-09T02:45:37.929Z,11.30
2017-11-09T02:48:05.424Z,11.30
2017-11-09T02:50:33.677Z,11.20
2017-11-09T02:53:01.159Z,11.20
2017-11-09T02:55:29.405Z,11.20
2017-11-09T02:57:56.893Z,11.20
2017-11-09T03:00:25.146Z,11.40
2017-11-09T03:02:52.631Z,11.40
2017-11-09T03:05:20.880Z,11.40
2017-11-09T03:07:48.362Z,11.30
2017-11-09T03:10:16.618Z,11.40
2017-11-09T03:12:44.098Z,11.30
2017-11-09T03:15:12.346Z,11.20
2017-11-09T03:17:39.824Z,11.10
2017-11-09T03:20:07.305Z,11.20
2017-11-09T03:22:35.553Z,11.30
2017-11-09T03:25:03.040Z,11.30
2017-11-09T03:27:31.290Z,11.20
2017-11-09T03:30:00.278Z,11.10
2017-11-09T03:32:27.758Z,11.20
2017-11-09T03:34:56.006Z,11.30
2017-11-09T03:37:23.482Z,11.30
2017-11-09T03:39:50.964Z,11.20
2017-11-09T03:42:19.209Z,11.10
2017-11-09T03:44:46.688Z,11.00
2017-11-09T03:47:14.946Z,11.20
2017-11-09T03:49:42.422Z,11.10
2017-11-09T03:52:10.671Z,11.20
2017-11-09T03:54:38.154Z,11.20
2017-11-09T03:57:05.630Z,11.20
2017-11-09T03:59:33.878Z,11.20
2017-11-09T04:02:01.367Z,11.20
2017-11-09T04:04:29.618Z,11.20
2017-11-09T04:06:57.100Z,11.20
2017-11-09T04:09:25.358Z,11.30
2017-11-09T04:11:52.842Z,11.30
2017-11-09T04:14:20.326Z,11.40
2017-11-09T04:16:47.812Z,11.30
2017-11-09T04:19:15.309Z,11.30
2017-11-09T04:21:43.561Z,11.30
2017-11-09T04:24:11.044Z,11.30
2017-11-09T04:26:39.324Z,11.40
2017-11-09T04:29:07.579Z,11.40
2017-11-09T04:31:35.059Z,11.30
2017-11-09T04:34:03.303Z,11.20
2017-11-09T04:36:30.782Z,11.20
2017-11-09T04:38:59.037Z,11.20
2017-11-09T04:41:26.718Z,11.20
2017-11-09T04:43:54.200Z,11.20
2017-11-09T04:46:22.449Z,11.20
2017-11-09T04:48:49.932Z,11.20
2017-11-09T04:51:18.169Z,11.30
2017-11-09T04:53:45.650Z,11.20
2017-11-09T04:56:13.142Z,11.30
2017-11-09T04:58:40.632Z,11.20
2017-11-09T05:01:08.118Z,11.20
2017-11-09T05:03:36.362Z,11.20
2017-11-09T05:06:03.843Z,11.20
2017-11-09T05:08:31.333Z,11.20
2017-11-09T05:10:59.579Z,11.20
2017-11-09T05:13:27.069Z,11.10
2017-11-09T05:15:55.319Z,11.00
2017-11-09T05:18:22.809Z,11.00
2017-11-09T05:20:51.056Z,11.00
2017-11-09T05:23:18.543Z,10.90
2017-11-09T05:25:46.792Z,11.10
2017-11-09T05:28:14.279Z,11.00
2017-11-09T05:30:42.525Z,11.10
2017-11-09T05:33:10.012Z,11.10
2017-11-09T05:35:38.258Z,11.10
2017-11-09T05:38:05.738Z,11.00
2017-11-09T05:40:33.226Z,11.10
2017-11-09T05:43:00.716Z,11.40
2017-11-09T05:45:28.198Z,11.30
2017-11-09T05:47:56.447Z,11.30
2017-11-09T05:50:23.934Z,11.20
2017-11-09T05:52:51.453Z,11.30
2017-11-09T05:55:18.937Z,11.30
2017-11-09T05:57:46.419Z,11.30
2017-11-09T06:00:14.676Z,11.10
2017-11-09T06:02:42.166Z,11.00
2017-11-09T06:05:10.422Z,11.10
2017-11-09T06:07:39.411Z,11.00
2017-11-09T06:10:06.898Z,11.00
2017-11-09T06:12:35.149Z,11.10
2017-11-09T06:15:02.636Z,11.10
2017-11-09T06:17:30.882Z,11.20
2017-11-09T06:19:58.369Z,11.20
2017-11-09T06:22:26.614Z,11.20
2017-11-09T06:24:54.098Z,11.20
2017-11-09T06:27:21.578Z,11.20
2017-11-09T06:29:49.822Z,11.20
2017-11-09T06:32:17.309Z,11.10
2017-11-09T06:34:45.560Z,11.00
2017-11-09T06:37:13.041Z,11.00
2017-11-09T06:39:41.297Z,11.10
2017-11-09T06:42:08.783Z,11.00
2017-11-09T06:44:37.032Z,11.20
2017-11-09T06:47:04.508Z,11.10
2017-11-09T06:49:32.766Z,11.10
2017-11-09T06:52:00.250Z,11.10
2017-11-09T06:54:28.505Z,11.20
2017-11-09T06:56:55.993Z,11.10
2017-11-09T06:59:23.493Z,11.10
2017-11-09T07:01:50.974Z,11.00
2017-11-09T07:04:18.518Z,11.10
2017-11-09T07:06:45.995Z,11.40
2017-11-09T07:09:14.248Z,11.40
2017-11-09T07:11:41.726Z,11.40
2017-11-09T07:14:09.207Z,11.40
2017-11-09T07:16:37.455Z,11.30
2017-11-09T07:19:04.941Z,11.20
2017-11-09T07:21:33.196Z,11.20
2017-11-09T07:24:00.681Z,11.20
2017-11-09T07:26:28.934Z,11.20
2017-11-09T07:28:56.423Z,11.20
2017-11-09T07:31:24.672Z,11.10
2017-11-09T07:33:52.198Z,11.10
2017-11-09T07:36:19.684Z,11.20
2017-11-09T07:38:47.168Z,11.20
2017-11-09T07:41:15.414Z,11.20
2017-11-09T07:43:42.906Z,11.20
2017-11-09T07:46:11.170Z,11.40
2017-11-09T07:48:38.657Z,11.30
2017-11-09T07:51:06.913Z,11.40
2017-11-09T07:53:34.401Z,11.40
2017-11-09T07:56:01.900Z,11.50
2017-11-09T07:58:29.389Z,11.40
2017-11-09T08:00:56.878Z,11.50
2017-11-09T08:03:24.372Z,11.60
2017-11-09T08:05:51.849Z,11.50
2017-11-09T08:08:19.356Z,11.60
2017-11-09T08:10:46.859Z,11.60
2017-11-09T08:13:14.346Z,11.50
2017-11-09T08:15:42.598Z,11.50
2017-11-09T08:18:10.110Z,11.40
2017-11-09T08:20:37.599Z,11.50
2017-11-09T08:23:05.124Z,11.40
2017-11-09T08:25:35.162Z,11.40
2017-11-09T08:28:05.584Z,11.40
2017-11-09T08:30:34.790Z,11.40
2017-11-09T08:33:04.004Z,11.60
2017-11-09T08:35:31.479Z,11.90
2017-11-09T08:37:58.963Z,11.70
2017-11-09T08:40:27.221Z,11.70
2017-11-09T08:42:54.714Z,11.60
2017-11-09T08:45:22.966Z,11.60
2017-11-09T08:47:50.457Z,11.50
2017-11-09T08:50:17.942Z,11.50
2017-11-09T08:52:45.430Z,11.50
2017-11-09T08:55:12.912Z,11.50
2017-11-09T08:57:41.171Z,11.50
2017-11-09T09:00:08.652Z,11.40
2017-11-09T09:02:36.903Z,11.50
2017-11-09T09:05:04.382Z,11.40
2017-11-09T09:07:32.648Z,11.70
2017-11-09T09:10:00.136Z,11.60
2017-11-09T09:12:27.631Z,11.50
2017-11-09T09:14:55.124Z,11.70
2017-11-09T09:17:22.610Z,11.70
2017-11-09T09:19:50.856Z,11.70
2017-11-09T09:22:34.977Z,11.60
2017-11-09T09:25:07.235Z,11.60
2017-11-09T09:27:34.726Z,11.50
2017-11-09T09:30:18.019Z,11.60
2017-11-09T09:32:51.680Z,11.50
2017-11-09T09:35:24.514Z,11.60
2017-11-09T09:37:57.015Z,11.80
2017-11-09T09:40:28.809Z,11.80
2017-11-09T09:42:57.057Z,11.70
2017-11-09T09:45:24.542Z,11.70
2017-11-09T09:47:52.802Z,11.80
2017-11-09T09:50:20.301Z,11.80
2017-11-09T09:52:47.791Z,11.80
2017-11-09T09:55:15.280Z,11.90
2017-11-09T09:57:42.787Z,11.90
2017-11-09T10:00:10.270Z,11.90
2017-11-09T10:02:37.754Z,11.90
2017-11-09T10:05:05.250Z,11.90
2017-11-09T10:07:33.494Z,11.90
2017-11-09T10:10:00.978Z,11.90
2017-11-09T10:12:29.229Z,12.10
2017-11-09T10:14:56.713Z,12.10
2017-11-09T10:17:24.957Z,12.10
2017-11-09T10:19:52.447Z,12.10
2017-11-09T10:22:20.696Z,12.30
2017-11-09T10:24:48.951Z,12.30
2017-11-09T10:27:16.429Z,12.20
2017-11-09T10:29:43.909Z,12.20
2017-11-09T10:32:12.912Z,12.00
2017-11-09T10:34:41.159Z,12.10
2017-11-09T10:37:08.654Z,12.00
2017-11-09T10:39:36.917Z,12.10
2017-11-09T10:42:04.399Z,12.10
2017-11-09T10:44:31.883Z,12.30
2017-11-09T10:46:59.437Z,12.40
2017-11-09T10:49:26.927Z,12.80
2017-11-09T10:51:54.427Z,12.50
2017-11-09T10:54:22.733Z,12.50
2017-11-09T10:56:50.217Z,12.50
2017-11-09T10:59:17.702Z,13.10
2017-11-09T11:01:45.185Z,13.20
2017-11-09T11:04:13.554Z,12.90
2017-11-09T11:06:41.809Z,13.30
2017-11-09T11:09:09.298Z,13.30
2017-11-09T11:11:37.553Z,12.80
2017-11-09T11:14:05.035Z,12.70
2017-11-09T11:16:33.281Z,13.60
2017-11-09T11:19:00.782Z,13.60
2017-11-09T11:21:28.269Z,13.30
2017-11-09T11:23:55.755Z,14.50
2017-11-09T11:26:23.242Z,14.30
2017-11-09T11:28:51.490Z,13.90
2017-11-09T11:31:18.977Z,13.80
2017-11-09T11:33:47.234Z,13.60
2017-11-09T11:36:14.726Z,13.60
2017-11-09T11:38:42.262Z,14.30
2017-11-09T11:41:10.519Z,13.90
2017-11-09T11:43:38.002Z,13.80
2017-11-09T11:46:06.257Z,13.50
2017-11-09T11:48:33.747Z,13.40
2017-11-09T11:51:01.999Z,13.00
2017-11-09T11:53:29.479Z,13.00
2017-11-09T11:55:57.725Z,12.80
2017-11-09T11:58:25.231Z,12.80
2017-11-09T12:00:52.719Z,12.80
2017-11-09T12:03:20.217Z,13.10
2017-11-09T12:05:47.699Z,13.30
2017-11-09T12:08:16.861Z,13.20
2017-11-09T12:10:44.349Z,13.20
2017-11-09T12:13:12.607Z,13.40
2017-11-09T12:15:40.872Z,13.40
2017-11-09T12:18:08.350Z,13.40
2017-11-09T12:20:36.610Z,13.20
2017-11-09T12:23:04.099Z,13.10
2017-11-09T12:25:32.342Z,13.20
2017-11-09T12:27:59.830Z,13.10
2017-11-09T12:30:28.079Z,14.00
2017-11-09T12:32:55.559Z,14.00
2017-11-09T12:35:23.047Z,13.80
2017-11-09T12:37:50.543Z,13.50
2017-11-09T12:40:18.029Z,13.40
2017-11-09T12:42:45.515Z,14.00
2017-11-09T12:45:13.767Z,13.40
2017-11-09T12:47:41.250Z,13.40
2017-11-09T12:50:09.507Z,14.20
2017-11-09T12:52:37.760Z,13.80
2017-11-09T12:55:05.243Z,13.70
2017-11-09T12:57:32.726Z,13.50
2017-11-09T13:00:00.217Z,13.60
2017-11-09T13:02:27.703Z,13.40
2017-11-09T13:04:55.191Z,13.50
2017-11-09T13:07:23.439Z,13.40
2017-11-09T13:09:50.928Z,13.30
2017-11-09T13:12:19.178Z,13.30
2017-11-09T13:14:46.656Z,13.20
2017-11-09T13:17:14.913Z,13.70
2017-11-09T13:19:42.398Z,13.70
2017-11-09T13:22:10.669Z,14.10
2017-11-09T13:24:38.987Z,14.30
2017-11-09T13:27:06.474Z,14.30
2017-11-09T13:29:33.968Z,14.50
2017-11-09T13:32:02.238Z,13.80
2017-11-09T13:34:31.429Z,13.60
2017-11-09T13:36:59.686Z,13.60
2017-11-09T13:39:27.174Z,13.50
2017-11-09T13:41:55.431Z,13.70
2017-11-09T13:44:22.926Z,13.70
2017-11-09T13:46:51.178Z,14.40
2017-11-09T13:49:18.668Z,14.30
2017-11-09T13:51:46.178Z,14.60
2017-11-09T13:54:13.670Z,14.20
2017-11-09T13:56:41.948Z,14.10
2017-11-09T13:59:10.194Z,13.80
2017-11-09T14:01:37.674Z,13.80
2017-11-09T14:04:05.932Z,13.80
2017-11-09T14:06:33.410Z,13.80
2017-11-09T14:09:00.899Z,13.80
2017-11-09T14:11:28.707Z,14.30
2017-11-09T14:13:56.197Z,14.20
2017-11-09T14:16:24.453Z,14.00
2017-11-09T14:18:51.948Z,14.00
2017-11-09T14:21:20.207Z,14.20
2017-11-09T14:23:48.456Z,14.00
2017-11-09T14:26:15.956Z,14.00
2017-11-09T14:28:44.205Z,14.00
2017-11-09T14:31:12.135Z,14.00
2017-11-09T14:33:39.706Z,13.70
2017-11-09T14:36:07.372Z,13.50
2017-11-09T14:38:37.348Z,13.40
2017-11-09T14:41:06.130Z,13.90
2017-11-09T14:43:34.545Z,13.60
2017-11-09T14:46:02.763Z,13.60
2017-11-09T14:48:30.896Z,13.50
2017-11-09T14:50:58.880Z,13.60
2017-11-09T14:53:26.642Z,13.60
2017-11-09T14:55:55.607Z,13.60
2017-11-09T14:58:23.762Z,13.70
2017-11-09T15:00:52.681Z,13.50
2017-11-09T15:03:21.548Z,13.40
2017-11-09T15:05:50.576Z,13.40
2017-11-09T15:08:18.614Z,13.40
2017-11-09T15:10:47.233Z,13.50
2017-11-09T15:13:15.275Z,13.40
2017-11-09T15:15:43.993Z,13.40
2017-11-09T15:18:12.680Z,13.30
2017-11-09T15:20:40.532Z,13.30
2017-11-09T15:23:08.795Z,13.40
2017-11-09T15:25:40.890Z,13.30
2017-11-09T15:28:09.429Z,13.20
2017-11-09T15:30:37.700Z,13.30
2017-11-09T15:33:08.010Z,13.30
2017-11-09T15:35:36.683Z,13.30
2017-11-09T15:38:04.638Z,13.40
2017-11-09T15:40:32.229Z,13.20
2017-11-09T15:43:01.149Z,13.00
2017-11-09T15:45:29.919Z,13.00
2017-11-09T15:47:57.913Z,12.90
2017-11-09T15:50:27.547Z,13.90
2017-11-09T15:52:55.563Z,13.80
2017-11-09T15:55:23.442Z,13.50
2017-11-09T15:57:51.580Z,13.30
2017-11-09T16:00:19.402Z,13.20
2017-11-09T16:02:48.325Z,12.90
2017-11-09T16:05:16.530Z,12.90
2017-11-09T16:07:45.714Z,12.80
2017-11-09T16:10:13.879Z,12.90
2017-11-09T16:12:43.078Z,13.00
2017-11-09T16:15:11.557Z,12.90
2017-11-09T16:17:39.634Z,13.00
2017-11-09T16:20:08.524Z,12.90
2017-11-09T16:22:37.218Z,12.90
2017-11-09T16:25:05.538Z,13.00
2017-11-09T16:27:33.457Z,12.90
2017-11-09T16:30:01.167Z,12.90
2017-11-09T16:32:29.662Z,12.90
2017-11-09T16:34:57.881Z,12.80
2017-11-09T16:37:25.910Z,12.80
2017-11-09T16:39:55.092Z,12.70
2017-11-09T16:42:23.224Z,12.70
2017-11-09T16:44:52.121Z,12.70
2017-11-09T16:47:20.588Z,12.70
2017-11-09T16:49:51.494Z,12.70
2017-11-09T16:52:19.573Z,12.60
2017-11-09T16:54:51.800Z,12.70
2017-11-09T16:57:19.856Z,12.70
2017-11-09T16:59:47.935Z,12.70
2017-11-09T17:02:15.879Z,12.70
2017-11-09T17:04:47.107Z,12.60
2017-11-09T17:07:21.186Z,12.60
2017-11-09T17:09:49.948Z,12.60
2017-11-09T17:12:17.426Z,12.60
2017-11-09T17:14:45.527Z,12.60
2017-11-09T17:17:13.003Z,12.60
2017-11-09T17:19:41.724Z,12.60
2017-11-09T17:22:09.263Z,12.60
2017-11-09T17:24:36.922Z,12.60
2017-11-09T17:27:05.190Z,12.60
2017-11-09T17:29:33.442Z,12.60
2017-11-09T17:32:00.922Z,12.60
2017-11-09T17:34:29.165Z,12.60
2017-11-09T17:36:56.658Z,12.60
2017-11-09T17:39:25.535Z,12.50
2017-11-09T17:41:58.077Z,12.40
2017-11-09T17:44:26.230Z,12.50
2017-11-09T17:46:54.203Z,12.60
2017-11-09T17:49:22.122Z,12.50
2017-11-09T17:51:49.799Z,12.50
2017-11-09T17:54:18.618Z,12.60
2017-11-09T17:56:48.323Z,12.60
2017-11-09T17:59:23.483Z,12.60
2017-11-09T18:01:51.512Z,12.70
2017-11-09T18:04:20.598Z,12.40
2017-11-09T18:06:48.088Z,12.40
2017-11-09T18:09:15.606Z,12.40
2017-11-09T18:11:43.086Z,12.50
2017-11-09T18:14:11.358Z,13.60
2017-11-09T18:16:39.610Z,14.10
2017-11-09T18:19:07.083Z,14.00
2017-11-09T18:21:35.350Z,14.30
2017-11-09T18:24:02.933Z,14.20
2017-11-09T18:26:31.194Z,13.10
2017-11-09T18:28:58.680Z,13.00
2017-11-09T18:31:33.508Z,12.80
2017-11-09T18:34:01.763Z,12.70
2017-11-09T18:36:29.252Z,12.70
2017-11-09T18:38:57.502Z,12.60
2017-11-09T18:41:24.980Z,12.60
2017-11-09T18:43:53.275Z,12.40
2017-11-09T18:46:20.766Z,12.40
2017-11-09T18:48:48.293Z,12.30
2017-11-09T18:51:15.785Z,12.40
2017-11-09T18:53:43.270Z,12.60
2017-11-09T18:56:10.755Z,12.60
2017-11-09T18:58:39.068Z,12.40
2017-11-09T19:01:08.344Z,12.40
2017-11-09T19:03:36.595Z,12.70
2017-11-09T19:06:04.079Z,12.70
2017-11-09T19:08:32.330Z,12.60
2017-11-09T19:10:59.817Z,12.50
2017-11-09T19:13:28.060Z,12.40
2017-11-09T19:15:55.548Z,12.30
2017-11-09T19:18:23.802Z,12.30
2017-11-09T19:20:51.289Z,12.20
2017-11-09T19:23:19.558Z,12.30
2017-11-09T19:25:47.063Z,12.20
2017-11-09T19:28:14.545Z,12.40
2017-11-09T19:30:42.035Z,12.50
2017-11-09T19:33:10.287Z,12.50
2017-11-09T19:35:37.769Z,12.40
2017-11-09T19:38:06.021Z,12.40
2017-11-09T19:40:33.516Z,12.30
2017-11-09T19:43:01.762Z,12.40
2017-11-09T19:45:29.245Z,12.40
2017-11-09T19:47:57.494Z,12.60
2017-11-09T19:50:24.979Z,12.50
2017-11-09T19:52:53.229Z,12.50
2017-11-09T19:55:21.491Z,12.60
2017-11-09T19:57:49.007Z,12.60
2017-11-09T20:00:16.494Z,12.50
2017-11-09T20:02:43.980Z,12.50
2017-11-09T20:05:11.470Z,12.40
2017-11-09T20:07:39.735Z,12.10
2017-11-09T20:10:07.989Z,12.10
2017-11-09T20:12:35.479Z,12.00
2017-11-09T20:15:03.739Z,12.00
2017-11-09T20:17:31.235Z,11.90
2017-11-09T20:19:58.723Z,11.90
2017-11-09T20:22:26.202Z,11.90
2017-11-09T20:24:53.681Z,12.00
2017-11-09T20:27:21.154Z,11.90
2017-11-09T20:29:49.405Z,11.90
2017-11-09T20:32:16.892Z,11.90
2017-11-09T20:34:45.163Z,12.10
2017-11-09T20:37:13.182Z,12.10
2017-11-09T20:39:40.867Z,12.10
2017-11-09T20:42:08.509Z,12.10
2017-11-09T20:44:36.918Z,12.00
2017-11-09T20:47:04.458Z,12.00
2017-11-09T20:49:33.752Z,12.10
2017-11-09T20:52:01.231Z,12.00
2017-11-09T20:54:28.719Z,11.80
2017-11-09T20:56:57.020Z,12.00
2017-11-09T20:59:24.505Z,12.00
2017-11-09T21:01:51.991Z,12.00
2017-11-09T21:04:19.483Z,12.10
2017-11-09T21:06:47.730Z,12.00
2017-11-09T21:09:15.318Z,12.00
2017-11-09T21:11:43.586Z,12.10
2017-11-09T21:14:11.837Z,12.20
2017-11-09T21:16:39.572Z,12.20
2017-11-09T21:19:07.075Z,12.20
2017-11-09T21:21:34.594Z,12.20
2017-11-09T21:24:03.064Z,12.30
2017-11-09T21:26:30.572Z,12.40
2017-11-09T21:28:58.846Z,12.10
2017-11-09T21:31:26.342Z,12.10
2017-11-09T21:33:53.839Z,12.10
2017-11-09T21:36:21.316Z,12.20
2017-11-09T21:38:49.078Z,12.10
2017-11-09T21:41:16.682Z,12.10
2017-11-09T21:43:44.955Z,12.10
2017-11-09T21:46:13.209Z,12.10
2017-11-09T21:48:40.681Z,12.10
2017-11-09T21:51:10.784Z,12.00
2017-11-09T21:53:38.271Z,12.00
2017-11-09T21:56:06.526Z,12.00
2017-11-09T21:58:34.138Z,12.00
2017-11-09T22:01:01.618Z,11.90
2017-11-09T22:03:29.245Z,11.90
2017-11-09T22:05:56.734Z,11.80
2017-11-09T22:08:24.221Z,11.70
2017-11-09T22:10:51.717Z,11.80
2017-11-09T22:13:19.203Z,11.90
2017-11-09T22:15:46.694Z,11.90
2017-11-09T22:18:14.182Z,11.90
2017-11-09T22:20:42.604Z,12.00
2017-11-09T22:23:10.144Z,12.00
2017-11-09T22:25:37.645Z,12.10
2017-11-09T22:28:05.126Z,12.10
2017-11-09T22:30:33.377Z,12.10
2017-11-09T22:33:00.867Z,12.10
2017-11-09T22:35:29.124Z,12.20
2017-11-09T22:37:58.115Z,12.30
2017-11-09T22:40:25.856Z,12.30
2017-11-09T22:42:53.362Z,12.30
2017-11-09T22:45:21.751Z,12.40
2017-11-09T22:47:50.006Z,12.30
2017-11-09T22:50:17.499Z,12.20
2017-11-09T22:52:45.094Z,12.30
2017-11-09T22:55:12.585Z,12.30
2017-11-09T22:57:40.837Z,12.30
2017-11-09T23:00:08.321Z,12.20
2017-11-09T23:02:35.798Z,12.20
2017-11-09T23:05:04.046Z,12.40
2017-11-09T23:07:31.535Z,12.30
2017-11-09T23:09:59.794Z,12.20
2017-11-09T23:12:27.374Z,12.10
2017-11-09T23:14:55.744Z,12.20
2017-11-09T23:17:23.286Z,12.20
2017-11-09T23:19:50.774Z,12.10
2017-11-09T23:22:19.118Z,12.40
2017-11-09T23:24:46.611Z,12.30
2017-11-09T23:27:15.331Z,12.20
2017-11-09T23:29:42.817Z,12.20
2017-11-09T23:32:10.310Z,12.30
2017-11-09T23:34:38.573Z,12.10
2017-11-09T23:37:06.049Z,12.10
2017-11-09T23:39:34.302Z,12.00
2017-11-09T23:42:08.357Z,11.90
2017-11-09T23:44:35.845Z,12.10
2017-11-09T23:47:03.336Z,12.20
2017-11-09T23:49:30.845Z,12.30
2017-11-09T23:51:58.379Z,12.50
2017-11-09T23:54:26.635Z,12.10
2017-11-09T23:56:54.253Z,12.10
2017-11-09T23:59:24.816Z,12.00
